Time;durP1;ratioP1;P1;durP2;ratioP2;P2;SDS_P1;SDS_P2;PMS_P1;PMS_P2;Temp;Humidity;BMP_temperature;BMP_pressure;BME280_temperature;BME280_humidity;BME280_pressure;Samples;Min_cycle;Max_cycle;Signal;HPM_P1;HPM_P2
2022/03/15 00:00:54;;;;;;;15.75;9.20;;;-3.80;99.90;;;;;;5012472;28;20029;-74
2022/03/15 00:03:21;;;;;;;17.90;8.90;;;-3.80;99.90;;;;;;5012383;28;20026;-74
2022/03/15 00:05:47;;;;;;;18.13;9.73;;;-3.80;99.90;;;;;;5011736;28;20034;-75
2022/03/15 00:08:13;;;;;;;15.63;8.45;;;-3.80;99.90;;;;;;5012248;28;20433;-75
2022/03/15 00:10:39;;;;;;;16.30;8.75;;;-3.80;99.90;;;;;;5012584;28;20105;-74
2022/03/15 00:13:06;;;;;;;22.48;9.50;;;-3.80;99.90;;;;;;5012290;28;20550;-74
2022/03/15 00:15:32;;;;;;;19.35;9.15;;;-3.80;99.90;;;;;;5012202;28;20034;-74
2022/03/15 00:17:59;;;;;;;20.15;9.05;;;-3.70;99.90;;;;;;5012348;28;20385;-74
2022/03/15 00:20:25;;;;;;;25.52;9.43;;;-3.70;99.90;;;;;;5012517;28;20121;-74
2022/03/15 00:22:55;;;;;;;19.15;9.07;;;-3.70;99.90;;;;;;5010895;28;20384;-74
2022/03/15 00:25:21;;;;;;;17.67;7.60;;;-3.70;99.90;;;;;;5012143;28;20032;-74
2022/03/15 00:27:51;;;;;;;24.92;9.00;;;-3.70;99.90;;;;;;5012051;28;20116;-74
2022/03/15 00:30:17;;;;;;;21.98;9.43;;;-3.80;99.90;;;;;;5011953;28;20069;-74
2022/03/15 00:32:43;;;;;;;20.00;10.13;;;-3.90;99.90;;;;;;5011886;28;20052;-74
2022/03/15 00:35:17;;;;;;;24.00;9.90;;;-3.90;99.90;;;;;;5010620;28;20505;-74
2022/03/15 00:37:48;;;;;;;16.55;9.30;;;-3.90;99.90;;;;;;5010572;28;20080;-74
2022/03/15 00:40:15;;;;;;;21.98;9.00;;;-4.10;99.90;;;;;;5012169;28;20112;-74
2022/03/15 00:42:49;;;;;;;23.85;11.82;;;-4.00;99.90;;;;;;5011997;28;20677;-74
2022/03/15 00:45:16;;;;;;;14.45;8.35;;;-4.00;99.90;;;;;;5011924;28;20030;-74
2022/03/15 00:47:42;;;;;;;18.20;8.60;;;-4.00;99.90;;;;;;5011860;28;20507;-74
2022/03/15 00:50:08;;;;;;;17.77;9.40;;;-3.90;99.90;;;;;;5012017;28;20034;-74
2022/03/15 00:52:34;;;;;;;18.33;8.25;;;-3.90;99.90;;;;;;5012062;28;20444;-74
2022/03/15 00:55:00;;;;;;;17.92;8.85;;;-3.80;99.90;;;;;;5011973;28;20022;-74
2022/03/15 00:57:26;;;;;;;19.83;8.88;;;-3.90;99.90;;;;;;5011781;28;20052;-74
2022/03/15 00:59:51;;;;;;;14.65;7.82;;;-3.90;99.90;;;;;;5012103;28;20036;-73
2022/03/15 01:02:17;;;;;;;12.90;7.00;;;-4.00;99.90;;;;;;5011657;28;20037;-74
2022/03/15 01:04:43;;;;;;;15.73;7.78;;;-4.20;99.90;;;;;;5011803;28;20111;-74
2022/03/15 01:07:11;;;;;;;12.23;7.78;;;-4.30;99.90;;;;;;5011500;28;20064;-74
2022/03/15 01:09:37;;;;;;;15.88;8.30;;;-4.30;99.90;;;;;;5012064;28;20032;-74
2022/03/15 01:12:03;;;;;;;10.73;7.05;;;-4.20;99.90;;;;;;5011454;28;20105;-76
2022/03/15 01:14:29;;;;;;;13.35;7.45;;;-4.20;99.90;;;;;;5011781;28;20512;-76
2022/03/15 01:16:55;;;;;;;16.73;7.97;;;-4.10;99.90;;;;;;5013002;28;20022;-76
2022/03/15 01:19:25;;;;;;;22.10;7.70;;;-4.10;99.90;;;;;;5015427;28;20041;-73
2022/03/15 01:21:52;;;;;;;19.63;8.20;;;-4.10;99.90;;;;;;5015746;28;20117;-74
2022/03/15 01:24:18;;;;;;;16.10;7.75;;;-4.10;99.90;;;;;;5015461;28;20034;-73
2022/03/15 01:26:44;;;;;;;14.95;7.78;;;-4.00;99.90;;;;;;5015571;28;20026;-74
2022/03/15 01:29:10;;;;;;;14.65;8.35;;;-4.00;99.90;;;;;;5015117;28;20358;-75
2022/03/15 01:31:36;;;;;;;14.88;7.88;;;-4.00;99.90;;;;;;5015286;28;20037;-74
2022/03/15 01:34:01;;;;;;;13.80;8.07;;;-4.00;99.90;;;;;;5015221;28;20385;-74
2022/03/15 01:36:27;;;;;;;18.30;7.93;;;-4.00;99.90;;;;;;5014916;28;20025;-75
2022/03/15 01:38:53;;;;;;;12.07;7.03;;;-4.10;99.90;;;;;;5014830;28;20108;-74
2022/03/15 01:41:21;;;;;;;15.88;8.43;;;-4.10;99.90;;;;;;5015116;28;20029;-75
2022/03/15 01:43:47;;;;;;;14.80;7.80;;;-4.10;99.90;;;;;;5015007;28;20032;-74
2022/03/15 01:46:13;;;;;;;13.63;7.78;;;-4.10;99.90;;;;;;5014841;28;20033;-75
2022/03/15 01:48:40;;;;;;;17.63;7.57;;;-4.00;99.90;;;;;;5015033;28;20422;-68
2022/03/15 01:51:06;;;;;;;12.75;8.00;;;-4.10;99.90;;;;;;5014874;28;20029;-73
2022/03/15 01:53:33;;;;;;;12.80;7.03;;;-4.00;99.90;;;;;;5014680;28;20037;-74
2022/03/15 01:56:01;;;;;;;17.58;8.23;;;-4.00;99.90;;;;;;5014971;28;20446;-74
2022/03/15 01:58:28;;;;;;;12.10;6.90;;;-3.90;99.90;;;;;;5014847;28;20103;-74
2022/03/15 02:00:54;;;;;;;12.48;7.38;;;-3.90;99.90;;;;;;5014702;28;20053;-74
2022/03/15 02:03:19;;;;;;;12.50;6.65;;;-3.90;99.90;;;;;;5014463;28;20068;-74
2022/03/15 02:05:45;;;;;;;15.27;7.50;;;-3.80;99.90;;;;;;5014737;28;20050;-74
2022/03/15 02:08:16;;;;;;;14.52;7.63;;;-3.90;99.90;;;;;;5014362;28;20033;-72
2022/03/15 02:10:43;;;;;;;12.85;7.05;;;-3.90;99.90;;;;;;5014717;28;20029;-73
2022/03/15 02:13:10;;;;;;;11.52;7.50;;;-4.00;99.90;;;;;;5014157;28;20444;-73
2022/03/15 02:15:37;;;;;;;14.25;7.70;;;-4.20;99.90;;;;;;5014367;28;20022;-72
2022/03/15 02:18:03;;;;;;;19.58;7.55;;;-4.20;99.90;;;;;;5014367;28;20030;-72
2022/03/15 02:20:30;;;;;;;13.70;7.50;;;-4.10;99.90;;;;;;5014262;28;20049;-73
2022/03/15 02:22:57;;;;;;;21.25;8.20;;;-4.10;99.90;;;;;;5014462;28;20101;-72
2022/03/15 02:54:26;;;;;;;13.13;7.22;;;-4.10;99.90;;;;;;5012809;28;20519;-72
2022/03/15 02:56:52;;;;;;;16.23;7.30;;;-4.10;99.90;;;;;;5014770;28;20054;-72
2022/03/15 02:59:18;;;;;;;11.00;7.22;;;-4.10;99.90;;;;;;5013843;28;20037;-72
2022/03/15 03:01:45;;;;;;;18.30;7.38;;;-4.10;99.90;;;;;;5013705;28;20461;-73
2022/03/15 03:37:50;;;;;;;17.27;6.40;;;-4.30;99.90;;;;;;5478132;22;20424;-70
2022/03/15 03:40:16;;;;;;;20.42;6.65;;;-4.30;99.90;;;;;;5008031;28;20085;-70
2022/03/15 03:42:42;;;;;;;20.95;7.35;;;-4.40;99.90;;;;;;4991768;28;20041;-69
2022/03/15 03:45:08;;;;;;;18.25;6.72;;;-4.40;99.90;;;;;;4992839;28;20081;-69
2022/03/15 03:47:33;;;;;;;17.92;6.82;;;-4.40;99.90;;;;;;4993302;28;20076;-69
2022/03/15 03:49:59;;;;;;;15.68;6.70;;;-4.40;99.90;;;;;;4993186;28;20026;-69
2022/03/15 03:52:25;;;;;;;12.60;6.57;;;-4.50;99.90;;;;;;4993168;28;20116;-69
2022/03/15 03:54:51;;;;;;;12.55;6.10;;;-4.50;99.90;;;;;;5007540;28;20504;-69
2022/03/15 03:57:16;;;;;;;28.27;7.47;;;-4.50;99.90;;;;;;4992956;28;20023;-70
2022/03/15 03:59:42;;;;;;;10.07;5.82;;;-4.60;99.90;;;;;;4993283;28;20462;-71
2022/03/15 04:02:08;;;;;;;9.82;6.35;;;-4.60;99.90;;;;;;4992779;28;20113;-72
2022/03/15 04:04:34;;;;;;;9.13;5.38;;;-4.60;99.90;;;;;;4993108;28;20041;-72
2022/03/15 04:07:05;;;;;;;12.88;6.80;;;-4.60;99.90;;;;;;4992796;28;20035;-71
2022/03/15 04:09:31;;;;;;;11.55;6.90;;;-4.50;99.90;;;;;;4992763;28;20510;-71
2022/03/15 04:11:56;;;;;;;19.17;6.60;;;-4.50;99.90;;;;;;5007665;28;20045;-68
2022/03/15 04:14:22;;;;;;;10.13;6.20;;;-4.50;99.90;;;;;;4992787;28;20026;-71
2022/03/15 04:16:48;;;;;;;20.83;6.47;;;-4.50;99.90;;;;;;4992706;28;20390;-73
2022/03/15 04:19:14;;;;;;;15.40;6.82;;;-4.60;99.90;;;;;;4992626;28;20057;-72
2022/03/15 04:21:39;;;;;;;13.32;6.28;;;-4.60;99.90;;;;;;4992654;28;20118;-72
2022/03/15 04:24:05;;;;;;;11.50;7.10;;;-4.60;99.90;;;;;;4992635;28;20022;-72
2022/03/15 04:26:31;;;;;;;15.90;6.72;;;-4.60;99.90;;;;;;4992813;28;20030;-73
2022/03/15 04:28:57;;;;;;;10.27;7.13;;;-4.60;99.90;;;;;;4992732;28;20382;-73
2022/03/15 04:31:23;;;;;;;14.52;7.45;;;-4.60;99.90;;;;;;4992647;28;20802;-71
2022/03/15 04:33:49;;;;;;;14.23;6.63;;;-4.70;99.90;;;;;;4992728;28;20034;-70
2022/03/15 04:36:15;;;;;;;12.70;8.23;;;-4.70;99.90;;;;;;4992446;28;20148;-70
2022/03/15 04:38:40;;;;;;;14.02;6.80;;;-4.70;99.90;;;;;;4992153;28;20133;-70
2022/03/15 04:41:06;;;;;;;11.20;6.50;;;-4.60;99.90;;;;;;4992616;28;20031;-71
2022/03/15 04:43:33;;;;;;;15.18;8.43;;;-4.60;99.90;;;;;;4992318;28;20030;-71
2022/03/15 04:45:59;;;;;;;18.40;7.28;;;-4.50;99.90;;;;;;4992321;28;20026;-71
2022/03/15 04:48:25;;;;;;;14.32;7.50;;;-4.50;99.90;;;;;;4992373;28;20029;-71
2022/03/15 04:50:51;;;;;;;17.05;7.85;;;-4.60;99.90;;;;;;4992656;28;20117;-71
2022/03/15 04:53:18;;;;;;;12.85;6.97;;;-4.60;99.90;;;;;;4995665;28;20493;-71
2022/03/15 04:55:45;;;;;;;19.17;6.88;;;-4.70;99.90;;;;;;4996479;28;20030;-71
2022/03/15 04:58:11;;;;;;;55.42;7.97;;;-4.70;99.90;;;;;;4996265;28;20120;-70
2022/03/15 05:00:37;;;;;;;30.27;6.95;;;-4.70;99.90;;;;;;4996092;28;20430;-70
2022/03/15 05:03:02;;;;;;;38.55;8.15;;;-4.70;99.90;;;;;;4996013;28;20022;-70
2022/03/15 05:05:28;;;;;;;50.60;8.40;;;-4.70;99.90;;;;;;4996103;28;20034;-70
2022/03/15 05:07:54;;;;;;;42.42;7.60;;;-4.70;99.90;;;;;;4996154;28;20026;-70
2022/03/15 05:13:04;;;;;;;22.35;6.28;;;-4.70;99.90;;;;;;4995820;28;20045;-70
2022/03/15 05:15:30;;;;;;;24.20;7.72;;;-4.80;99.90;;;;;;4995993;28;20026;-71
2022/03/15 05:17:56;;;;;;;17.67;7.05;;;-4.80;99.90;;;;;;4996026;28;20105;-70
2022/03/15 05:20:23;;;;;;;25.90;7.50;;;-4.80;99.90;;;;;;4995664;28;20081;-70
2022/03/15 05:22:49;;;;;;;31.35;8.25;;;-4.80;99.90;;;;;;4995509;28;20041;-70
2022/03/15 05:25:15;;;;;;;27.67;7.43;;;-4.70;99.90;;;;;;4995626;28;20030;-70
2022/03/15 05:27:41;;;;;;;20.80;7.55;;;-4.70;99.90;;;;;;4995607;28;20030;-70
2022/03/15 05:30:08;;;;;;;13.63;7.22;;;-4.70;99.90;;;;;;5010519;28;20032;-70
2022/03/15 05:32:34;;;;;;;14.10;7.22;;;-4.70;99.90;;;;;;4995612;28;20544;-69
2022/03/15 05:35:01;;;;;;;11.60;6.93;;;-4.70;99.90;;;;;;4995483;28;20050;-69
2022/03/15 05:37:27;;;;;;;16.40;7.07;;;-4.80;99.90;;;;;;4995033;28;20458;-67
2022/03/15 05:39:53;;;;;;;12.20;6.68;;;-4.60;99.90;;;;;;4995100;28;20072;-69
2022/03/15 05:42:19;;;;;;;18.85;8.05;;;-4.20;99.90;;;;;;4995038;28;20030;-68
2022/03/15 05:44:46;;;;;;;15.65;6.65;;;-4.20;99.90;;;;;;4995395;28;20026;-68
2022/03/15 05:47:11;;;;;;;17.98;7.78;;;-4.30;99.90;;;;;;4994725;28;20396;-68
2022/03/15 05:49:37;;;;;;;30.15;7.85;;;-4.40;99.90;;;;;;5003334;28;20169;-68
2022/03/15 05:52:03;;;;;;;18.17;7.65;;;-4.30;99.90;;;;;;4994633;28;20112;-68
2022/03/15 05:54:30;;;;;;;14.63;7.35;;;-4.20;99.90;;;;;;4993954;28;20081;-68
2022/03/15 05:56:56;;;;;;;20.15;8.05;;;-4.20;99.90;;;;;;4994251;28;20023;-68
2022/03/15 05:59:22;;;;;;;28.35;8.75;;;-4.10;99.90;;;;;;4994116;28;20110;-68
2022/03/15 06:01:48;;;;;;;19.10;7.25;;;-4.10;99.90;;;;;;4992221;28;20118;-68
2022/03/15 06:04:14;;;;;;;14.93;6.07;;;-3.90;99.90;;;;;;4993029;28;20961;-68
2022/03/15 06:06:39;;;;;;;14.63;6.93;;;-3.80;99.90;;;;;;4991857;28;20022;-68
2022/03/15 06:09:05;;;;;;;17.38;6.72;;;-3.70;99.90;;;;;;4994401;28;20030;-68
2022/03/15 06:11:32;;;;;;;21.95;7.85;;;-3.60;99.90;;;;;;4994271;28;20034;-69
2022/03/15 06:13:58;;;;;;;28.00;8.00;;;-3.50;99.90;;;;;;4994338;28;20030;-68
2022/03/15 06:16:24;;;;;;;35.97;9.50;;;-3.40;99.90;;;;;;4994638;28;20026;-68
2022/03/15 06:18:50;;;;;;;31.50;7.00;;;-3.50;99.90;;;;;;4992105;28;20018;-68
2022/03/15 06:21:19;;;;;;;32.47;8.05;;;-3.60;99.90;;;;;;4975056;28;20027;-67
2022/03/15 06:23:45;;;;;;;23.20;7.60;;;-3.60;99.90;;;;;;4974997;28;20027;-68
2022/03/15 06:26:11;;;;;;;26.30;7.15;;;-3.50;99.90;;;;;;4987920;28;20469;-67
2022/03/15 06:28:37;;;;;;;27.08;7.70;;;-3.40;99.90;;;;;;4986803;28;20026;-69
2022/03/15 06:31:03;;;;;;;32.95;7.85;;;-3.10;99.90;;;;;;4991139;28;20504;-69
2022/03/15 06:33:29;;;;;;;28.58;7.63;;;-3.00;99.90;;;;;;4990482;28;20038;-69
2022/03/15 06:35:55;;;;;;;44.92;9.15;;;-3.00;99.90;;;;;;4991641;28;20069;-69
2022/03/15 06:38:22;;;;;;;27.08;8.40;;;-2.90;99.90;;;;;;4991175;28;20043;-69
2022/03/15 06:40:49;;;;;;;38.13;9.27;;;-2.80;99.90;;;;;;4982317;28;20027;-69
2022/03/15 06:43:15;;;;;;;32.25;7.47;;;-2.60;99.90;;;;;;4985903;28;20022;-69
2022/03/15 06:45:44;;;;;;;45.00;8.00;;;-2.50;99.90;;;;;;4993595;28;20022;-69
2022/03/15 06:48:10;;;;;;;54.88;11.38;;;-2.40;99.90;;;;;;4992873;28;20029;-69
2022/03/15 06:50:36;;;;;;;21.75;7.68;;;-2.50;99.90;;;;;;4991950;28;20022;-69
2022/03/15 06:53:03;;;;;;;38.47;9.57;;;-2.60;99.90;;;;;;4985873;28;20520;-69
2022/03/15 06:55:29;;;;;;;31.75;7.57;;;-2.70;99.90;;;;;;4987570;28;20081;-68
2022/03/15 06:57:55;;;;;;;45.47;8.70;;;-1.90;99.90;;;;;;4993190;28;20041;-69
2022/03/15 07:00:21;;;;;;;38.47;8.13;;;-1.60;99.90;;;;;;4993032;28;20470;-69
2022/03/15 07:02:47;;;;;;;62.47;8.77;;;-1.70;99.90;;;;;;4993252;28;20425;-69
2022/03/15 07:05:13;;;;;;;41.40;8.80;;;-1.90;99.90;;;;;;4993152;28;20026;-69
2022/03/15 07:07:39;;;;;;;30.33;8.50;;;-1.90;99.90;;;;;;4993281;28;20033;-68
2022/03/15 07:10:06;;;;;;;41.10;9.23;;;-1.90;99.90;;;;;;4992978;28;20014;-67
2022/03/15 07:12:35;;;;;;;30.75;8.68;;;-1.00;99.90;;;;;;4984279;28;20034;-67
2022/03/15 07:15:03;;;;;;;31.73;7.75;;;-0.70;99.90;;;;;;4981404;28;20110;-66
2022/03/15 07:17:30;;;;;;;26.55;8.50;;;-0.90;99.90;;;;;;4973908;28;20074;-66
2022/03/15 07:19:59;;;;;;;29.20;9.20;;;-1.10;99.90;;;;;;4973702;28;20541;-68
2022/03/15 07:22:26;;;;;;;35.08;10.32;;;-1.20;99.90;;;;;;4973712;28;20058;-68
2022/03/15 07:24:52;;;;;;;44.60;9.77;;;-1.40;99.90;;;;;;4990366;28;20019;-69
2022/03/15 07:27:18;;;;;;;45.75;10.90;;;-1.50;99.90;;;;;;4992634;28;20022;-68
2022/03/15 07:29:44;;;;;;;35.13;10.02;;;-1.70;99.90;;;;;;4990218;28;20061;-67
2022/03/15 07:32:10;;;;;;;42.28;10.15;;;-1.70;99.90;;;;;;4981425;28;20058;-68
2022/03/15 07:34:36;;;;;;;48.25;9.68;;;-1.80;99.90;;;;;;4973355;28;20027;-68
2022/03/15 07:37:03;;;;;;;30.25;9.07;;;-1.90;99.90;;;;;;4983478;28;20100;-66
2022/03/15 07:39:29;;;;;;;35.13;9.68;;;-1.90;99.90;;;;;;4982671;28;20041;-67
2022/03/15 07:41:55;;;;;;;27.05;10.10;;;-2.00;99.90;;;;;;4990741;28;20022;-66
2022/03/15 07:44:21;;;;;;;32.78;8.80;;;-2.00;99.90;;;;;;4988935;28;20018;-65
2022/03/15 07:46:50;;;;;;;23.95;8.18;;;-2.00;99.90;;;;;;4991586;28;20037;-66
2022/03/15 07:49:18;;;;;;;29.23;8.85;;;-2.00;99.90;;;;;;4991103;28;20027;-66
2022/03/15 07:51:44;;;;;;;30.90;9.63;;;-2.00;99.90;;;;;;4991070;28;20397;-66
2022/03/15 07:54:10;;;;;;;40.20;10.15;;;-1.90;99.90;;;;;;4982908;28;20084;-66
2022/03/15 07:56:37;;;;;;;26.23;8.75;;;-1.90;99.90;;;;;;4989169;28;20050;-67
2022/03/15 07:59:03;;;;;;;24.65;8.80;;;-1.90;99.90;;;;;;4984066;28;20037;-67
2022/03/15 08:01:29;;;;;;;27.90;9.13;;;-1.80;99.90;;;;;;4985145;28;20515;-67
2022/03/15 08:03:55;;;;;;;25.48;8.90;;;-1.80;99.90;;;;;;4983388;28;20018;-67
2022/03/15 08:06:20;;;;;;;63.15;10.52;;;-1.80;99.90;;;;;;4982981;28;20064;-68
2022/03/15 08:08:46;;;;;;;47.65;10.20;;;-1.80;99.90;;;;;;4984145;28;20430;-67
2022/03/15 08:11:12;;;;;;;27.77;9.05;;;-1.80;99.90;;;;;;4984110;28;20023;-68
2022/03/15 08:13:38;;;;;;;26.98;8.93;;;-1.70;99.90;;;;;;4987799;28;20636;-68
2022/03/15 08:16:05;;;;;;;33.67;9.10;;;-1.70;99.90;;;;;;4985631;28;20022;-68
2022/03/15 08:18:32;;;;;;;35.17;8.90;;;-1.70;99.90;;;;;;4986731;28;20110;-68
2022/03/15 08:20:59;;;;;;;35.40;9.48;;;-1.40;99.90;;;;;;4984409;28;20029;-68
2022/03/15 08:23:27;;;;;;;21.17;8.13;;;-1.10;99.90;;;;;;4989264;28;20014;-70
2022/03/15 08:25:55;;;;;;;29.15;8.73;;;-1.00;99.90;;;;;;4985911;28;20023;-71
2022/03/15 08:28:22;;;;;;;20.13;8.05;;;-1.10;99.90;;;;;;4986120;28;20040;-71
2022/03/15 08:30:48;;;;;;;33.65;8.48;;;-1.10;99.90;;;;;;4992897;28;20030;-70
2022/03/15 08:33:14;;;;;;;19.42;8.75;;;-1.20;99.90;;;;;;4988736;28;20041;-70
2022/03/15 08:35:40;;;;;;;22.85;8.60;;;-1.10;99.90;;;;;;4986509;28;20038;-70
2022/03/15 08:38:05;;;;;;;34.85;9.20;;;-1.10;99.90;;;;;;4992138;28;20089;-69
2022/03/15 08:40:32;;;;;;;33.92;9.43;;;-1.10;99.90;;;;;;4992040;28;20026;-71
2022/03/15 08:42:58;;;;;;;30.88;9.40;;;-1.10;99.90;;;;;;4992065;28;20031;-71
2022/03/15 08:45:24;;;;;;;28.38;9.27;;;-1.10;99.90;;;;;;4991440;28;20026;-70
2022/03/15 08:47:50;;;;;;;19.45;8.25;;;-1.00;99.90;;;;;;4990628;28;20026;-72
2022/03/15 08:50:17;;;;;;;38.78;8.95;;;-1.00;99.90;;;;;;4992351;28;20034;-72
2022/03/15 08:52:44;;;;;;;21.50;9.05;;;-1.00;99.90;;;;;;4991608;28;20042;-72
2022/03/15 08:55:10;;;;;;;33.58;9.18;;;-0.90;99.90;;;;;;4990629;28;20466;-71
2022/03/15 08:57:36;;;;;;;29.20;9.05;;;-0.90;99.90;;;;;;4990875;28;20037;-71
2022/03/15 09:00:04;;;;;;;29.48;8.68;;;-0.80;99.90;;;;;;4978505;28;20033;-70
2022/03/15 09:02:29;;;;;;;25.73;8.40;;;-0.70;99.90;;;;;;4991682;28;20026;-69
2022/03/15 09:04:55;;;;;;;30.08;8.57;;;-0.70;99.90;;;;;;4989818;28;20023;-68
2022/03/15 09:07:21;;;;;;;20.70;6.90;;;-0.30;99.90;;;;;;4986700;28;20021;-68
2022/03/15 09:09:46;;;;;;;29.05;7.22;;;1.00;99.90;;;;;;4990218;28;20033;-68
2022/03/15 09:12:12;;;;;;;26.83;8.10;;;1.80;99.90;;;;;;4991402;28;20066;-69
2022/03/15 09:14:38;;;;;;;21.20;7.85;;;1.50;99.90;;;;;;4991579;28;20034;-68
2022/03/15 09:17:05;;;;;;;22.15;9.48;;;1.10;99.90;;;;;;4991541;28;20054;-68
2022/03/15 09:19:31;;;;;;;30.20;8.50;;;0.80;99.90;;;;;;4991357;28;20496;-68
2022/03/15 09:21:56;;;;;;;15.90;5.88;;;0.50;99.90;;;;;;4991776;28;20026;-69
2022/03/15 09:24:22;;;;;;;25.67;8.57;;;1.40;99.90;;;;;;4991342;28;20418;-69
2022/03/15 09:26:48;;;;;;;37.42;9.00;;;2.20;99.90;;;;;;4991303;28;20030;-69
2022/03/15 09:29:13;;;;;;;24.88;8.52;;;1.90;99.90;;;;;;4991550;28;20109;-69
2022/03/15 09:31:39;;;;;;;38.75;8.55;;;1.50;99.90;;;;;;4991309;28;20077;-69
2022/03/15 09:34:06;;;;;;;36.50;8.60;;;1.30;99.90;;;;;;4991424;28;20377;-69
2022/03/15 09:36:32;;;;;;;25.23;10.48;;;1.10;99.90;;;;;;4991253;28;20551;-69
2022/03/15 09:38:58;;;;;;;28.98;11.75;;;1.00;99.90;;;;;;4994007;28;20066;-69
2022/03/15 09:41:26;;;;;;;39.08;11.77;;;1.20;99.90;;;;;;4995135;28;20080;-69
2022/03/15 09:43:54;;;;;;;24.40;11.38;;;1.20;99.90;;;;;;4994528;28;20022;-70
2022/03/15 09:46:22;;;;;;;26.90;10.93;;;1.80;99.90;;;;;;4995039;28;20093;-70
2022/03/15 09:48:52;;;;;;;34.85;13.05;;;1.90;99.90;;;;;;4995050;28;20081;-70
2022/03/15 09:51:19;;;;;;;41.28;14.50;;;1.70;99.90;;;;;;4992876;28;20054;-70
2022/03/15 09:53:46;;;;;;;44.90;14.30;;;1.50;99.90;;;;;;4994371;28;20406;-70
2022/03/15 09:56:15;;;;;;;30.85;11.95;;;1.40;99.90;;;;;;4993123;28;20030;-70
2022/03/15 09:58:41;;;;;;;27.27;11.20;;;1.30;99.90;;;;;;4991520;28;20026;-69
2022/03/15 10:01:12;;;;;;;29.83;11.25;;;1.40;99.90;;;;;;4994704;28;20030;-69
2022/03/15 10:03:38;;;;;;;26.08;10.82;;;1.70;99.90;;;;;;4991354;28;20039;-65
2022/03/15 10:06:04;;;;;;;21.88;10.52;;;1.60;99.90;;;;;;4989237;28;20018;-67
2022/03/15 10:08:30;;;;;;;23.13;10.20;;;1.80;99.90;;;;;;4986082;28;20607;-64
2022/03/15 10:10:56;;;;;;;30.25;11.52;;;1.90;99.90;;;;;;4976865;28;20031;-68
2022/03/15 10:13:23;;;;;;;39.10;11.63;;;1.80;99.90;;;;;;4987231;28;20040;-69
2022/03/15 10:15:59;;;;;;;27.83;11.32;;;1.70;99.90;;;;;;4994068;28;20026;-67
2022/03/15 10:18:26;;;;;;;37.20;11.60;;;1.60;99.90;;;;;;4994295;28;20610;-67
2022/03/15 10:20:52;;;;;;;32.63;10.90;;;1.60;99.90;;;;;;4993946;28;20030;-67
2022/03/15 10:23:22;;;;;;;29.58;11.05;;;1.60;99.90;;;;;;4994436;28;20089;-67
2022/03/15 10:25:50;;;;;;;29.57;12.40;;;1.60;99.90;;;;;;4994290;28;20030;-67
2022/03/15 10:28:18;;;;;;;35.65;12.38;;;1.60;99.90;;;;;;4989544;28;20034;-67
2022/03/15 10:30:46;;;;;;;29.05;10.07;;;1.60;99.90;;;;;;4983725;28;20512;-68
2022/03/15 10:33:12;;;;;;;24.08;9.38;;;1.70;99.90;;;;;;4993399;28;20058;-67
2022/03/15 10:35:42;;;;;;;25.50;8.82;;;1.80;99.90;;;;;;4990755;28;20030;-67
2022/03/15 10:38:08;;;;;;;19.98;9.82;;;1.80;99.90;;;;;;4975611;28;20540;-70
2022/03/15 10:40:36;;;;;;;17.48;7.28;;;1.80;99.90;;;;;;4974579;28;20383;-70
2022/03/15 10:43:07;;;;;;;22.83;8.07;;;1.80;99.90;;;;;;4984972;28;20085;-69
2022/03/15 10:45:34;;;;;;;17.88;7.72;;;1.80;99.90;;;;;;4993602;28;20115;-74
2022/03/15 10:48:01;;;;;;;15.88;6.90;;;1.80;99.90;;;;;;4993399;28;20030;-75
2022/03/15 10:50:30;;;;;;;13.82;7.18;;;1.90;99.90;;;;;;4993282;28;20026;-73
2022/03/15 10:52:56;;;;;;;11.98;6.35;;;2.10;99.90;;;;;;4993950;28;20104;-71
2022/03/15 10:55:28;;;;;;;17.50;6.28;;;2.20;99.90;;;;;;4993517;28;20026;-69
2022/03/15 10:58:07;;;;;;;12.50;6.22;;;2.80;99.90;;;;;;4994005;28;20023;-70
2022/03/15 11:00:36;;;;;;;17.98;6.03;;;2.70;99.90;;;;;;4993779;28;20161;-71
2022/03/15 11:03:10;;;;;;;12.25;5.38;;;2.60;99.90;;;;;;4993826;28;20066;-72
2022/03/15 11:05:41;;;;;;;8.60;4.78;;;2.50;99.90;;;;;;4993941;28;20026;-72
2022/03/15 11:08:09;;;;;;;14.65;5.25;;;2.30;99.90;;;;;;4993812;28;20034;-71
2022/03/15 11:10:36;;;;;;;18.63;6.07;;;2.30;99.90;;;;;;4993590;28;20076;-71
2022/03/15 11:13:11;;;;;;;12.85;5.38;;;2.20;99.90;;;;;;4992350;28;20034;-72
2022/03/15 11:15:55;;;;;;;9.05;4.22;;;2.20;99.90;;;;;;4993401;28;20037;-72
2022/03/15 11:18:21;;;;;;;11.02;4.50;;;2.20;99.90;;;;;;4993470;28;20022;-72
2022/03/15 11:20:49;;;;;;;13.32;5.30;;;2.20;99.90;;;;;;4992132;28;20489;-72
2022/03/15 11:23:16;;;;;;;24.25;5.25;;;2.10;99.90;;;;;;4993430;28;20154;-71
2022/03/15 11:26:00;;;;;;;10.43;4.07;;;2.10;99.90;;;;;;4993168;28;20088;-71
2022/03/15 11:28:28;;;;;;;5.18;3.60;;;2.10;99.90;;;;;;4993549;28;20221;-71
2022/03/15 11:30:56;;;;;;;8.98;3.88;;;2.10;99.90;;;;;;4993010;28;20085;-71
2022/03/15 11:33:23;;;;;;;7.85;3.53;;;2.10;99.90;;;;;;4993123;28;20434;-72
2022/03/15 11:35:49;;;;;;;12.65;3.88;;;2.10;99.90;;;;;;4993003;28;20041;-71
2022/03/15 11:38:15;;;;;;;10.10;3.45;;;2.10;99.90;;;;;;4992289;28;20050;-71
2022/03/15 11:40:43;;;;;;;10.23;5.00;;;2.00;99.90;;;;;;4992506;28;20023;-72
2022/03/15 11:43:50;;;;;;;6.90;3.90;;;2.00;99.90;;;;;;4993094;28;20023;-70
2022/03/15 11:46:24;;;;;;;4.97;3.15;;;1.90;99.90;;;;;;4992527;28;20516;-70
2022/03/15 11:49:12;;;;;;;4.68;3.08;;;1.80;99.90;;;;;;4992879;28;20068;-74
2022/03/15 11:52:09;;;;;;;5.90;3.53;;;1.80;99.90;;;;;;4992501;28;20109;-71
2022/03/15 11:54:56;;;;;;;8.13;3.38;;;1.70;99.90;;;;;;4992663;28;20022;-71
2022/03/15 11:57:45;;;;;;;12.55;3.17;;;1.60;99.90;;;;;;4993286;28;20049;-72
2022/03/15 12:00:11;;;;;;;9.88;3.22;;;1.60;99.90;;;;;;4993168;28;20134;-71
2022/03/15 12:02:40;;;;;;;10.52;3.67;;;1.60;99.90;;;;;;4992637;28;20367;-72
2022/03/15 12:05:20;;;;;;;6.22;3.05;;;1.60;99.90;;;;;;4992782;28;20510;-72
2022/03/15 12:08:13;;;;;;;5.70;3.17;;;1.50;99.90;;;;;;4992718;28;20026;-71
2022/03/15 12:11:04;;;;;;;8.48;3.33;;;1.50;99.90;;;;;;4986835;28;20034;-72
2022/03/15 12:13:43;;;;;;;6.18;3.50;;;1.50;99.90;;;;;;4992206;28;20054;-71
2022/03/15 12:16:15;;;;;;;7.03;3.40;;;1.50;99.90;;;;;;4992775;28;20034;-71
2022/03/15 12:19:13;;;;;;;7.88;2.97;;;1.50;99.90;;;;;;4991239;28;20578;-71
2022/03/15 12:21:48;;;;;;;19.35;3.60;;;1.50;99.90;;;;;;4992711;28;20022;-71
2022/03/15 12:24:18;;;;;;;13.32;3.10;;;1.50;99.90;;;;;;4992804;28;20053;-70
2022/03/15 12:26:58;;;;;;;4.30;3.15;;;1.50;99.90;;;;;;4992731;28;20340;-71
2022/03/15 12:29:26;;;;;;;3.92;3.22;;;1.50;99.90;;;;;;4992708;28;20058;-70
2022/03/15 12:31:53;;;;;;;5.07;3.17;;;1.50;99.90;;;;;;4992646;28;20496;-71
2022/03/15 12:34:19;;;;;;;5.35;3.00;;;1.50;99.90;;;;;;4992331;28;20104;-72
2022/03/15 12:36:49;;;;;;;15.27;3.72;;;1.50;99.90;;;;;;4990875;28;20117;-70
2022/03/15 12:39:18;;;;;;;6.47;3.60;;;1.50;99.90;;;;;;4992712;28;20308;-71
2022/03/15 12:41:45;;;;;;;12.07;4.00;;;1.50;99.90;;;;;;4992513;28;20031;-72
2022/03/15 12:44:11;;;;;;;9.48;3.60;;;1.50;99.90;;;;;;4992362;28;20166;-71
2022/03/15 12:46:38;;;;;;;11.27;3.70;;;1.50;99.90;;;;;;4991694;28;20117;-72
2022/03/15 12:49:16;;;;;;;15.00;4.05;;;1.60;99.90;;;;;;4990880;28;20030;-72
2022/03/15 12:51:43;;;;;;;10.30;3.38;;;1.60;99.90;;;;;;4992225;28;20041;-71
2022/03/15 12:54:13;;;;;;;11.40;3.70;;;1.60;99.90;;;;;;4992025;28;20036;-68
2022/03/15 12:56:47;;;;;;;7.82;3.33;;;1.50;99.90;;;;;;4992396;28;20041;-69
2022/03/15 12:59:26;;;;;;;13.13;3.90;;;1.50;99.90;;;;;;4992373;28;20385;-67
2022/03/15 13:01:51;;;;;;;7.38;3.63;;;1.50;99.90;;;;;;4992349;28;20085;-68
2022/03/15 13:04:18;;;;;;;5.65;3.22;;;1.60;99.90;;;;;;4992499;28;20023;-68
2022/03/15 13:06:45;;;;;;;12.73;4.55;;;1.60;99.90;;;;;;4992048;28;20038;-69
2022/03/15 13:09:25;;;;;;;6.47;3.95;;;1.60;99.90;;;;;;4991855;28;20029;-69
2022/03/15 13:11:53;;;;;;;9.40;4.45;;;1.60;99.90;;;;;;4990631;28;20042;-70
2022/03/15 13:14:33;;;;;;;9.00;3.78;;;1.60;99.90;;;;;;4995051;28;20038;-70
2022/03/15 13:17:00;;;;;;;10.02;4.05;;;3.40;99.90;;;;;;4995935;28;20066;-70
2022/03/15 13:19:32;;;;;;;7.53;4.22;;;3.10;99.90;;;;;;4995678;28;20026;-70
2022/03/15 13:21:59;;;;;;;9.95;4.20;;;2.70;99.90;;;;;;4995993;28;20505;-70
2022/03/15 13:24:31;;;;;;;6.28;3.65;;;2.40;99.90;;;;;;4995605;28;20073;-70
2022/03/15 13:26:57;;;;;;;6.15;3.17;;;2.20;99.90;;;;;;4995985;28;20033;-70
2022/03/15 13:29:26;;;;;;;13.02;4.18;;;2.00;99.90;;;;;;4995127;28;20037;-70
2022/03/15 13:31:53;;;;;;;33.88;4.47;;;2.00;99.90;;;;;;4995266;28;20039;-70
2022/03/15 13:34:31;;;;;;;5.32;3.67;;;2.00;99.90;;;;;;4995413;28;20030;-70
2022/03/15 13:37:07;;;;;;;7.40;3.80;;;1.90;99.90;;;;;;4995214;28;20030;-70
2022/03/15 13:39:37;;;;;;;8.98;3.97;;;1.90;99.90;;;;;;4995200;28;20034;-70
2022/03/15 13:42:08;;;;;;;11.60;4.13;;;1.90;99.90;;;;;;4995425;28;20374;-70
2022/03/15 13:44:38;;;;;;;4.38;3.03;;;1.90;99.90;;;;;;4995475;28;20042;-69
2022/03/15 13:47:13;;;;;;;7.32;3.22;;;1.90;99.90;;;;;;4994053;28;20658;-70
2022/03/15 13:49:41;;;;;;;7.15;3.20;;;4.00;99.90;;;;;;4979281;28;20614;-70